Time;durP1;ratioP1;P1;durP2;ratioP2;P2;SDS_P1;SDS_P2;PMS_P1;PMS_P2;Temp;Humidity;BMP_temperature;BMP_pressure;BME280_temperature;BME280_humidity;BME280_pressure;Samples;Min_cycle;Max_cycle;Signal;HPM_P1;HPM_P2
2021/10/26 00:00:21;;;;;;;21.67;17.60;;;12.50;99.90;;;;;;6215467;23;20302;-89
2021/10/26 00:02:47;;;;;;;21.92;16.58;;;12.50;99.90;;;;;;6215842;23;20026;-88
2021/10/26 00:05:13;;;;;;;20.42;16.40;;;12.60;99.90;;;;;;6215651;23;19992;-87
2021/10/26 00:07:39;;;;;;;18.98;14.95;;;12.50;99.90;;;;;;6242034;23;20008;-87
2021/10/26 00:10:12;;;;;;;19.30;15.27;;;12.50;99.90;;;;;;6215675;23;20008;-88
2021/10/26 00:12:40;;;;;;;21.38;14.68;;;12.60;99.90;;;;;;6243110;23;20122;-88
2021/10/26 00:15:09;;;;;;;21.45;16.00;;;12.50;99.90;;;;;;6216060;23;20086;-89
2021/10/26 00:17:35;;;;;;;21.90;15.65;;;12.50;99.90;;;;;;6211089;23;20317;-87
2021/10/26 00:20:01;;;;;;;25.40;18.58;;;12.60;99.90;;;;;;6187684;23;20016;-88
2021/10/26 00:22:27;;;;;;;27.08;20.23;;;12.60;99.90;;;;;;6231677;23;20031;-88
2021/10/26 00:24:53;;;;;;;24.50;18.58;;;12.50;99.90;;;;;;6241098;23;20201;-88
2021/10/26 00:27:19;;;;;;;25.60;19.15;;;12.50;99.90;;;;;;6212950;23;20000;-89
2021/10/26 00:29:44;;;;;;;22.50;18.63;;;12.50;99.90;;;;;;6214277;23;20000;-88
2021/10/26 00:32:12;;;;;;;22.42;18.48;;;12.60;99.90;;;;;;6241482;23;20000;-89
2021/10/26 00:34:40;;;;;;;20.33;16.00;;;12.60;99.90;;;;;;6215713;23;20011;-87
2021/10/26 00:37:06;;;;;;;22.70;17.05;;;12.60;99.90;;;;;;6242448;23;20042;-87
2021/10/26 00:39:35;;;;;;;22.05;16.50;;;12.50;99.90;;;;;;6216256;23;20008;-88
2021/10/26 00:42:02;;;;;;;22.80;18.27;;;12.50;99.90;;;;;;6216198;23;20011;-88
2021/10/26 00:44:29;;;;;;;25.45;19.25;;;12.50;99.90;;;;;;6217927;23;19996;-87
2021/10/26 00:46:56;;;;;;;24.92;19.60;;;12.50;99.90;;;;;;6220525;23;20011;-88
2021/10/26 00:49:21;;;;;;;22.33;18.00;;;12.50;99.90;;;;;;6220411;23;20364;-88
2021/10/26 00:51:49;;;;;;;21.85;17.50;;;12.50;99.90;;;;;;6220196;23;19999;-90
2021/10/26 00:54:16;;;;;;;22.65;18.05;;;12.60;99.90;;;;;;6219350;23;20026;-90
2021/10/26 00:56:42;;;;;;;22.40;17.08;;;12.60;99.90;;;;;;6220809;23;19992;-89
2021/10/26 00:59:08;;;;;;;22.60;17.75;;;12.60;99.90;;;;;;6219544;23;20008;-89
2021/10/26 01:01:33;;;;;;;26.55;20.20;;;12.60;99.90;;;;;;6246382;23;20356;-89
2021/10/26 01:04:00;;;;;;;24.45;19.27;;;12.60;99.90;;;;;;6247060;23;19992;-90
2021/10/26 01:06:26;;;;;;;25.30;19.83;;;12.50;99.90;;;;;;6220043;23;20000;-89
2021/10/26 01:08:52;;;;;;;23.95;18.35;;;12.60;99.90;;;;;;6220498;23;19999;-89
2021/10/26 01:11:18;;;;;;;24.83;20.05;;;12.60;99.90;;;;;;6220345;23;20425;-88
2021/10/26 01:13:45;;;;;;;29.38;22.73;;;12.50;99.90;;;;;;6220678;23;19997;-88
2021/10/26 01:16:11;;;;;;;32.20;22.92;;;12.50;99.90;;;;;;6246885;23;20023;-89
2021/10/26 01:18:37;;;;;;;25.08;20.38;;;12.50;99.90;;;;;;6220045;23;20000;-88
2021/10/26 01:21:03;;;;;;;28.48;20.23;;;12.60;99.90;;;;;;6220468;23;20420;-89
2021/10/26 01:23:29;;;;;;;30.55;23.25;;;12.50;99.90;;;;;;6220571;23;20067;-89
2021/10/26 01:25:55;;;;;;;29.40;20.42;;;12.60;99.90;;;;;;6246273;23;20065;-89
2021/10/26 01:28:21;;;;;;;28.92;22.38;;;12.60;99.90;;;;;;6219365;23;20043;-88
2021/10/26 01:30:50;;;;;;;26.90;22.40;;;12.60;99.90;;;;;;6219959;23;20136;-88
2021/10/26 01:33:16;;;;;;;25.95;20.65;;;12.50;99.90;;;;;;6220340;23;20000;-88
2021/10/26 01:35:43;;;;;;;29.45;22.45;;;12.50;99.90;;;;;;6220734;23;20012;-88
2021/10/26 01:38:09;;;;;;;32.50;25.33;;;12.50;99.90;;;;;;6221717;23;20031;-89
2021/10/26 01:40:36;;;;;;;28.08;21.77;;;12.50;99.90;;;;;;6221286;23;20062;-88
2021/10/26 01:43:04;;;;;;;28.48;21.88;;;12.50;99.90;;;;;;6222112;23;19996;-89
2021/10/26 01:45:30;;;;;;;29.88;23.77;;;12.50;99.90;;;;;;6222724;23;20427;-89
2021/10/26 01:47:56;;;;;;;33.45;24.77;;;12.50;99.90;;;;;;6220966;23;20008;-90
2021/10/26 01:50:22;;;;;;;30.60;24.08;;;12.50;99.90;;;;;;6222441;23;20074;-89
2021/10/26 01:52:49;;;;;;;29.23;22.83;;;12.50;99.90;;;;;;6221936;23;20028;-89
2021/10/26 01:55:18;;;;;;;32.55;25.25;;;12.50;99.90;;;;;;6248207;23;20000;-89
2021/10/26 01:57:44;;;;;;;34.63;25.77;;;12.50;99.90;;;;;;6201641;23;20007;-89
2021/10/26 02:00:12;;;;;;;32.25;25.15;;;12.40;99.90;;;;;;6227411;23;20008;-89
2021/10/26 02:02:38;;;;;;;34.15;25.63;;;12.40;99.90;;;;;;6225093;23;20020;-89
2021/10/26 02:05:06;;;;;;;34.83;27.10;;;12.40;99.90;;;;;;6249342;23;19992;-89
2021/10/26 02:07:32;;;;;;;33.58;25.65;;;12.40;99.90;;;;;;6222195;23;20000;-89
2021/10/26 02:09:58;;;;;;;33.63;24.35;;;12.40;99.90;;;;;;6222413;23;19996;-90
2021/10/26 02:12:25;;;;;;;35.65;26.10;;;12.40;99.90;;;;;;6222421;23;20007;-89
2021/10/26 02:14:51;;;;;;;35.67;26.02;;;12.40;99.90;;;;;;6222392;23;20000;-89
2021/10/26 02:17:17;;;;;;;35.20;25.75;;;12.40;99.90;;;;;;6248755;23;20003;-89
2021/10/26 02:19:42;;;;;;;28.10;22.27;;;12.40;99.90;;;;;;6219655;23;20008;-89
2021/10/26 02:22:09;;;;;;;34.75;25.90;;;12.40;99.90;;;;;;6220121;23;20283;-90
2021/10/26 02:24:34;;;;;;;32.50;24.00;;;12.40;99.90;;;;;;6220822;23;19999;-90
2021/10/26 02:27:00;;;;;;;32.50;22.98;;;12.40;99.90;;;;;;6247048;23;20000;-89
2021/10/26 02:29:26;;;;;;;29.27;23.85;;;12.40;99.90;;;;;;6220937;23;20324;-89
2021/10/26 02:31:53;;;;;;;30.10;22.42;;;12.40;99.90;;;;;;6196259;23;20296;-89
2021/10/26 02:34:19;;;;;;;29.02;22.25;;;12.40;99.90;;;;;;6221712;23;20000;-89
2021/10/26 02:36:45;;;;;;;24.75;20.92;;;12.40;99.90;;;;;;6221154;23;20096;-89
2021/10/26 02:39:11;;;;;;;26.27;21.13;;;12.40;99.90;;;;;;6221065;23;20012;-90
2021/10/26 02:41:37;;;;;;;28.15;22.25;;;12.40;99.90;;;;;;6222354;23;20035;-90
2021/10/26 02:44:04;;;;;;;32.92;22.20;;;12.30;99.90;;;;;;6222366;23;20058;-89
2021/10/26 02:46:30;;;;;;;30.75;22.77;;;12.40;99.90;;;;;;6221599;23;19996;-90
2021/10/26 02:48:56;;;;;;;28.45;22.02;;;12.40;99.90;;;;;;6222041;23;20062;-89
2021/10/26 02:51:21;;;;;;;30.35;22.55;;;12.40;99.90;;;;;;6248835;23;20019;-89
2021/10/26 02:53:48;;;;;;;30.50;24.20;;;12.40;99.90;;;;;;6222471;23;20324;-89
2021/10/26 02:56:14;;;;;;;31.55;23.20;;;12.40;99.90;;;;;;6221419;23;20031;-89
2021/10/26 02:58:41;;;;;;;28.85;22.48;;;12.40;99.90;;;;;;6221923;23;20301;-89
2021/10/26 03:01:08;;;;;;;32.67;22.00;;;12.40;99.90;;;;;;6222023;23;20011;-89
2021/10/26 03:03:33;;;;;;;33.78;24.30;;;12.40;99.90;;;;;;6221419;23;19996;-90
2021/10/26 03:05:59;;;;;;;29.92;24.10;;;12.40;99.90;;;;;;6248253;23;19992;-90
2021/10/26 03:08:28;;;;;;;32.00;25.77;;;12.40;99.90;;;;;;6196466;23;20076;-91
2021/10/26 03:10:55;;;;;;;29.15;23.52;;;12.30;99.90;;;;;;6222202;23;20004;-89
2021/10/26 03:13:21;;;;;;;27.90;21.73;;;12.30;99.90;;;;;;6222243;23;20312;-90
2021/10/26 03:15:47;;;;;;;31.52;24.02;;;12.30;99.90;;;;;;6222097;23;20003;-89
2021/10/26 03:18:13;;;;;;;31.52;22.60;;;12.30;99.90;;;;;;6248366;23;20008;-90
2021/10/26 03:20:40;;;;;;;31.70;23.77;;;12.30;99.90;;;;;;6221199;23;20274;-89
2021/10/26 03:23:07;;;;;;;31.92;23.88;;;12.30;99.90;;;;;;6221685;23;20068;-90
2021/10/26 03:25:33;;;;;;;30.35;22.88;;;12.30;99.90;;;;;;6221470;23;20000;-89
2021/10/26 03:27:59;;;;;;;32.05;24.58;;;12.30;99.90;;;;;;6221604;23;20006;-90
2021/10/26 03:30:26;;;;;;;29.48;23.25;;;12.30;99.90;;;;;;6222201;23;20012;-90
2021/10/26 03:32:54;;;;;;;32.80;25.30;;;12.30;99.90;;;;;;6221265;23;20054;-90
2021/10/26 03:35:19;;;;;;;31.60;24.92;;;12.30;99.90;;;;;;6200747;23;20015;-89
2021/10/26 03:37:52;;;;;;;38.50;27.20;;;12.30;99.90;;;;;;6232026;23;20007;-90
2021/10/26 03:40:31;;;;;;;33.45;25.40;;;12.20;99.90;;;;;;6231276;23;20320;-89
2021/10/26 03:42:56;;;;;;;33.60;26.98;;;12.20;99.90;;;;;;6198908;23;20015;-90
2021/10/26 03:45:22;;;;;;;39.63;29.42;;;12.20;99.90;;;;;;6221770;23;19991;-90
2021/10/26 03:47:48;;;;;;;35.70;27.98;;;12.20;99.90;;;;;;6220603;22;20040;-89
2021/10/26 03:50:15;;;;;;;35.40;28.00;;;12.20;99.90;;;;;;6247395;23;20431;-89
2021/10/26 03:52:44;;;;;;;38.40;28.33;;;12.20;99.90;;;;;;6247776;23;20031;-89
2021/10/26 03:55:10;;;;;;;41.20;30.15;;;12.20;99.90;;;;;;6221364;23;20038;-89
2021/10/26 03:57:36;;;;;;;46.55;33.05;;;12.20;99.90;;;;;;6221299;23;19996;-89
2021/10/26 04:00:04;;;;;;;45.38;33.05;;;12.10;99.90;;;;;;6221039;23;20027;-89
2021/10/26 04:02:31;;;;;;;41.45;32.10;;;12.10;99.90;;;;;;6220970;23;19996;-90
2021/10/26 04:05:12;;;;;;;39.38;29.30;;;12.10;99.90;;;;;;6222002;23;20286;-89
2021/10/26 04:07:47;;;;;;;37.00;27.40;;;12.10;99.90;;;;;;6220573;23;20007;-89
2021/10/26 04:10:18;;;;;;;44.40;30.00;;;12.10;99.90;;;;;;6221660;23;19996;-89
2021/10/26 04:12:44;;;;;;;41.15;31.75;;;12.10;99.90;;;;;;6221591;23;20396;-89
2021/10/26 04:15:09;;;;;;;44.22;31.45;;;12.10;99.90;;;;;;6248002;23;20003;-89
2021/10/26 04:17:35;;;;;;;45.88;33.97;;;12.10;99.90;;;;;;6220921;23;20000;-89
2021/10/26 04:20:01;;;;;;;47.17;32.53;;;12.00;99.90;;;;;;6221268;23;20008;-90
2021/10/26 04:22:27;;;;;;;42.95;31.27;;;12.00;99.90;;;;;;6248629;23;20070;-89
2021/10/26 04:24:53;;;;;;;37.42;27.77;;;12.00;99.90;;;;;;6221500;23;20007;-89
2021/10/26 04:27:19;;;;;;;34.13;25.60;;;12.00;99.90;;;;;;6222160;23;19996;-90
2021/10/26 04:29:46;;;;;;;38.70;27.90;;;12.00;99.90;;;;;;6225114;23;20000;-90
2021/10/26 04:32:14;;;;;;;39.80;28.23;;;12.00;99.90;;;;;;6201470;23;20408;-89
2021/10/26 04:34:46;;;;;;;50.17;31.15;;;12.10;99.90;;;;;;6222492;23;19992;-89
2021/10/26 04:37:11;;;;;;;42.42;31.17;;;12.00;99.90;;;;;;6224718;23;20413;-89
2021/10/26 04:39:38;;;;;;;42.25;29.65;;;12.00;99.90;;;;;;6224872;23;20005;-89
2021/10/26 04:42:08;;;;;;;44.80;32.08;;;12.00;99.90;;;;;;6223081;23;20000;-89
2021/10/26 04:44:44;;;;;;;43.20;31.70;;;12.00;99.90;;;;;;6223360;23;20000;-89
2021/10/26 04:47:10;;;;;;;44.10;31.05;;;12.00;99.90;;;;;;6248654;23;20004;-89
2021/10/26 04:49:35;;;;;;;43.90;31.10;;;12.00;99.90;;;;;;6220192;23;20048;-89
2021/10/26 04:52:02;;;;;;;45.53;30.77;;;11.90;99.90;;;;;;6220862;23;20130;-89
2021/10/26 04:54:28;;;;;;;40.67;26.92;;;11.90;99.90;;;;;;6247403;23;20018;-88
2021/10/26 04:56:54;;;;;;;46.63;30.38;;;11.90;99.90;;;;;;6221044;23;20007;-89
2021/10/26 04:59:20;;;;;;;44.05;29.33;;;11.90;99.90;;;;;;6221427;23;20004;-89
2021/10/26 05:01:48;;;;;;;42.90;30.35;;;11.90;99.90;;;;;;6247958;23;19999;-89
2021/10/26 05:04:13;;;;;;;44.55;31.05;;;11.80;99.90;;;;;;6223804;23;20022;-89
2021/10/26 05:06:39;;;;;;;39.97;29.30;;;11.90;99.90;;;;;;6223279;23;20413;-89
2021/10/26 05:09:05;;;;;;;42.22;29.05;;;11.90;99.90;;;;;;6249316;23;20404;-89
2021/10/26 05:11:30;;;;;;;47.47;32.00;;;11.90;99.90;;;;;;6221495;23;20073;-88
2021/10/26 05:13:56;;;;;;;40.90;28.27;;;11.90;99.90;;;;;;6222742;23;20289;-88
2021/10/26 05:16:25;;;;;;;42.35;30.23;;;11.90;99.90;;;;;;6253210;23;20026;-88
2021/10/26 05:18:54;;;;;;;43.85;29.60;;;11.90;99.90;;;;;;6222772;23;20054;-89
2021/10/26 05:21:23;;;;;;;43.83;29.58;;;11.90;99.90;;;;;;6221275;23;20004;-89
2021/10/26 05:23:49;;;;;;;39.67;27.50;;;11.80;99.90;;;;;;6221107;23;19996;-90
2021/10/26 05:26:18;;;;;;;40.55;29.73;;;11.80;99.90;;;;;;6220978;23;20000;-87
2021/10/26 05:28:45;;;;;;;48.45;32.97;;;11.80;99.90;;;;;;6221287;23;19996;-89
2021/10/26 05:31:11;;;;;;;42.97;31.90;;;11.80;99.90;;;;;;6247669;23;19996;-89
2021/10/26 05:33:38;;;;;;;48.03;33.00;;;11.80;99.90;;;;;;6220988;23;19996;-88
2021/10/26 05:36:04;;;;;;;38.65;28.13;;;11.80;99.90;;;;;;6220878;23;19996;-88
2021/10/26 05:38:31;;;;;;;44.58;30.20;;;11.90;99.90;;;;;;6220692;23;20050;-89
2021/10/26 05:40:58;;;;;;;42.20;30.40;;;11.80;99.90;;;;;;6220739;23;20008;-88
2021/10/26 05:43:25;;;;;;;38.15;26.98;;;11.80;99.90;;;;;;6196030;23;20030;-89
2021/10/26 05:45:54;;;;;;;46.80;30.33;;;11.80;99.90;;;;;;6196212;23;20011;-89
2021/10/26 05:48:20;;;;;;;42.88;31.15;;;11.80;99.90;;;;;;6220352;23;20016;-89
2021/10/26 05:50:46;;;;;;;46.15;31.20;;;11.80;99.90;;;;;;6220638;23;20010;-89
2021/10/26 05:53:13;;;;;;;45.63;30.38;;;11.70;99.90;;;;;;6220805;23;19996;-88
2021/10/26 05:55:38;;;;;;;48.38;32.63;;;11.70;99.90;;;;;;6220624;23;20079;-88
2021/10/26 05:58:05;;;;;;;55.70;34.95;;;11.70;99.90;;;;;;6219649;23;20028;-89
2021/10/26 06:00:33;;;;;;;46.78;32.88;;;11.70;99.90;;;;;;6220621;23;20004;-88
2021/10/26 06:02:59;;;;;;;53.78;34.78;;;11.60;99.90;;;;;;6247414;23;20067;-89
2021/10/26 06:05:28;;;;;;;52.38;34.60;;;11.60;99.90;;;;;;6221173;23;20098;-88
2021/10/26 06:07:56;;;;;;;57.03;35.65;;;11.60;99.90;;;;;;6195599;23;20000;-88
2021/10/26 06:10:22;;;;;;;51.80;34.63;;;11.60;99.90;;;;;;6221649;23;20028;-88
2021/10/26 06:12:57;;;;;;;53.38;36.90;;;11.60;99.90;;;;;;6220409;23;20003;-88
2021/10/26 06:15:35;;;;;;;58.75;37.03;;;11.60;99.90;;;;;;6221554;23;20000;-89
2021/10/26 06:18:01;;;;;;;59.17;36.22;;;11.60;99.90;;;;;;6224430;23;20000;-90
2021/10/26 06:20:29;;;;;;;50.88;32.65;;;11.60;99.90;;;;;;6249140;23;20004;-89
2021/10/26 06:22:54;;;;;;;49.97;31.58;;;11.60;99.90;;;;;;6226862;23;20423;-89
2021/10/26 06:25:21;;;;;;;53.33;35.67;;;11.60;99.90;;;;;;6249074;23;20026;-90
2021/10/26 06:27:47;;;;;;;46.08;29.92;;;11.60;99.90;;;;;;6222731;23;20028;-90
2021/10/26 06:30:13;;;;;;;55.97;34.90;;;11.70;99.90;;;;;;6222109;23;20011;-89
2021/10/26 06:32:45;;;;;;;49.45;32.03;;;11.70;99.90;;;;;;6248729;23;20396;-89
2021/10/26 06:35:12;;;;;;;47.22;32.70;;;11.70;99.90;;;;;;6222478;23;19996;-88
2021/10/26 06:37:42;;;;;;;47.80;31.77;;;11.70;99.90;;;;;;6248926;23;20064;-88
2021/10/26 06:40:10;;;;;;;54.88;33.17;;;11.70;99.90;;;;;;6198185;23;20032;-89
2021/10/26 06:42:39;;;;;;;55.53;33.60;;;11.70;99.90;;;;;;6249746;23;20058;-88
2021/10/26 06:45:05;;;;;;;55.28;34.58;;;11.70;99.90;;;;;;6222341;23;20088;-89
2021/10/26 06:47:31;;;;;;;50.83;33.47;;;11.70;99.90;;;;;;6221593;23;19996;-89
2021/10/26 06:49:56;;;;;;;54.50;34.53;;;11.70;99.90;;;;;;6221936;23;20008;-88
2021/10/26 06:52:22;;;;;;;51.05;32.58;;;11.70;99.90;;;;;;6248956;23;20003;-88
2021/10/26 06:54:48;;;;;;;45.80;30.52;;;11.70;99.90;;;;;;6249141;23;19996;-89
2021/10/26 06:57:16;;;;;;;50.30;33.63;;;11.70;99.90;;;;;;6249816;23;19996;-89
2021/10/26 06:59:44;;;;;;;44.53;30.50;;;11.70;99.90;;;;;;6224186;23;20007;-88
2021/10/26 07:02:10;;;;;;;42.35;28.42;;;11.80;99.90;;;;;;6221110;23;20440;-89
2021/10/26 07:04:36;;;;;;;50.55;32.67;;;11.80;99.90;;;;;;6248622;23;19995;-89
2021/10/26 07:07:05;;;;;;;38.90;26.15;;;11.80;99.90;;;;;;6221713;23;20413;-88
2021/10/26 07:09:33;;;;;;;43.15;28.30;;;11.80;99.90;;;;;;6221588;23;20000;-89
2021/10/26 07:11:58;;;;;;;46.55;29.98;;;11.80;99.90;;;;;;6196872;23;20471;-88
2021/10/26 07:14:25;;;;;;;42.47;27.33;;;11.80;99.90;;;;;;6221033;23;19992;-88
2021/10/26 07:16:51;;;;;;;40.65;27.10;;;11.90;99.90;;;;;;6221775;23;20054;-88
2021/10/26 07:19:20;;;;;;;39.63;26.75;;;11.90;99.90;;;;;;6248575;23;20384;-88
2021/10/26 07:22:08;;;;;;;43.63;26.15;;;11.90;99.90;;;;;;6197306;23;20423;-89
2021/10/26 07:24:34;;;;;;;48.00;30.02;;;11.90;99.90;;;;;;6222254;23;20007;-89
2021/10/26 07:27:00;;;;;;;46.40;29.13;;;11.90;99.90;;;;;;6192288;23;20083;-88
2021/10/26 07:29:26;;;;;;;41.55;26.95;;;11.90;99.90;;;;;;6221296;23;20435;-89
2021/10/26 07:31:54;;;;;;;41.85;26.60;;;12.00;99.90;;;;;;6220779;23;20006;-90
2021/10/26 07:34:21;;;;;;;40.00;26.40;;;12.00;99.90;;;;;;6221647;23;20031;-89
2021/10/26 07:36:47;;;;;;;47.97;29.35;;;12.00;99.90;;;;;;6221810;23;20015;-88
2021/10/26 07:41:53;;;;;;;44.33;27.80;;;12.00;99.90;;;;;;6248415;23;20040;-89
2021/10/26 07:44:19;;;;;;;41.70;27.80;;;12.00;99.90;;;;;;6221435;23;20487;-89
2021/10/26 07:46:45;;;;;;;47.88;29.83;;;12.10;99.90;;;;;;6196313;23;20054;-89
2021/10/26 07:49:16;;;;;;;45.80;27.58;;;12.10;99.90;;;;;;6196259;23;20016;-89
2021/10/26 07:51:44;;;;;;;41.17;26.77;;;12.10;99.90;;;;;;6196682;23;20412;-89
2021/10/26 07:54:10;;;;;;;40.78;25.13;;;12.10;99.90;;;;;;6221322;23;20404;-89
2021/10/26 07:56:37;;;;;;;43.35;25.73;;;12.10;99.90;;;;;;6221292;23;20015;-89
2021/10/26 07:59:05;;;;;;;44.83;27.20;;;12.10;99.90;;;;;;6221489;23;20000;-89
2021/10/26 08:01:33;;;;;;;43.38;27.00;;;12.20;99.90;;;;;;6196581;23;20449;-89
2021/10/26 08:03:59;;;;;;;44.17;27.77;;;12.20;99.90;;;;;;6221450;23;19996;-88
2021/10/26 08:06:25;;;;;;;49.40;27.50;;;12.20;99.90;;;;;;6221074;23;20019;-89
2021/10/26 08:08:51;;;;;;;39.42;24.63;;;12.20;99.90;;;;;;6221592;23;20079;-89
2021/10/26 08:11:21;;;;;;;39.92;25.85;;;12.30;99.90;;;;;;6221077;23;20000;-89
2021/10/26 08:13:47;;;;;;;36.15;23.25;;;12.30;99.90;;;;;;6221392;23;19992;-88
2021/10/26 08:16:21;;;;;;;38.22;23.80;;;12.30;99.90;;;;;;6221537;23;20003;-89
2021/10/26 08:18:47;;;;;;;39.55;25.73;;;12.40;99.90;;;;;;6171605;23;20302;-89
2021/10/26 08:21:19;;;;;;;43.28;28.00;;;12.40;99.90;;;;;;6248189;23;20038;-89
2021/10/26 08:23:49;;;;;;;44.72;29.05;;;12.50;99.90;;;;;;6217817;23;20412;-90
2021/10/26 08:26:21;;;;;;;50.67;28.65;;;12.50;99.90;;;;;;6221434;23;19996;-89
2021/10/26 08:28:50;;;;;;;40.92;26.42;;;12.60;99.90;;;;;;6248057;23;20393;-89
2021/10/26 08:31:25;;;;;;;39.05;24.95;;;12.70;99.90;;;;;;6248091;23;20000;-89
2021/10/26 08:36:28;;;;;;;48.17;27.23;;;12.90;99.90;;;;;;6258680;23;20297;-89
2021/10/26 08:38:56;;;;;;;41.63;27.02;;;12.90;99.90;;;;;;6221786;23;20000;-89
2021/10/26 08:41:25;;;;;;;47.67;29.77;;;13.00;99.90;;;;;;6257453;23;20000;-89
2021/10/26 08:43:56;;;;;;;45.20;27.15;;;13.10;99.90;;;;;;6249530;23;19996;-89
2021/10/26 08:46:27;;;;;;;43.88;28.05;;;13.10;99.90;;;;;;6247851;23;20007;-88
2021/10/26 08:48:53;;;;;;;44.05;28.08;;;13.10;99.90;;;;;;6196186;23;20012;-88
2021/10/26 08:51:24;;;;;;;46.72;28.40;;;13.10;99.90;;;;;;6196425;23;20008;-88
2021/10/26 08:53:54;;;;;;;37.58;23.88;;;13.10;99.90;;;;;;6197049;23;20004;-89
2021/10/26 08:56:21;;;;;;;38.80;25.60;;;13.10;99.90;;;;;;6221002;23;20066;-89
2021/10/26 08:58:55;;;;;;;42.00;26.35;;;13.10;99.90;;;;;;6221350;23;19992;-88
2021/10/26 09:01:23;;;;;;;43.90;27.23;;;13.10;99.90;;;;;;6222671;23;20008;-88
2021/10/26 09:03:50;;;;;;;39.22;24.98;;;13.10;99.90;;;;;;6195749;23;20008;-89
2021/10/26 09:06:24;;;;;;;41.30;25.95;;;13.00;99.90;;;;;;6221376;23;20024;-86
2021/10/26 09:09:07;;;;;;;39.80;26.20;;;13.00;99.90;;;;;;6220953;23;20000;-89
2021/10/26 09:17:53;;;;;;;39.00;25.77;;;13.00;99.90;;;;;;6247290;23;20030;-88
2021/10/26 09:20:21;;;;;;;37.60;25.17;;;12.90;99.90;;;;;;6247179;23;20004;-88
2021/10/26 09:22:56;;;;;;;39.47;25.38;;;13.10;99.90;;;;;;6247594;23;19993;-88
2021/10/26 09:25:40;;;;;;;34.65;21.98;;;13.40;99.90;;;;;;6196777;23;20031;-88
2021/10/26 09:28:11;;;;;;;32.90;23.70;;;13.60;99.90;;;;;;6247842;23;19992;-88
2021/10/26 09:30:38;;;;;;;34.50;23.55;;;13.70;99.90;;;;;;6246022;23;20004;-89
2021/10/26 09:33:07;;;;;;;37.67;24.52;;;13.70;99.90;;;;;;6195823;23;20030;-89
2021/10/26 09:35:36;;;;;;;38.53;25.20;;;14.10;99.90;;;;;;6220207;23;20055;-89
2021/10/26 09:38:05;;;;;;;34.63;22.40;;;14.00;99.90;;;;;;6196021;23;20007;-88
2021/10/26 09:40:42;;;;;;;30.85;20.92;;;14.00;99.90;;;;;;6220759;23;20000;-88
2021/10/26 09:43:16;;;;;;;25.80;18.65;;;14.00;99.90;;;;;;6220214;23;20000;-90
2021/10/26 09:45:43;;;;;;;23.48;18.25;;;14.10;99.90;;;;;;6247799;23;20054;-89
2021/10/26 09:48:20;;;;;;;25.50;17.67;;;14.10;99.90;;;;;;6221077;22;20015;-89
2021/10/26 09:50:46;;;;;;;28.48;18.67;;;14.10;99.90;;;;;;6197080;23;20298;-89
2021/10/26 09:53:15;;;;;;;25.13;17.88;;;14.00;99.90;;;;;;6221768;23;19992;-89
2021/10/26 09:55:47;;;;;;;23.95;16.77;;;13.90;99.90;;;;;;6221073;23;20031;-89
2021/10/26 09:58:23;;;;;;;24.70;16.92;;;13.90;99.90;;;;;;6249154;23;19992;-90
2021/10/26 10:01:04;;;;;;;25.73;17.95;;;13.90;99.90;;;;;;6249379;23;20035;-89
2021/10/26 10:03:35;;;;;;;28.60;18.55;;;13.90;99.90;;;;;;6223135;23;20009;-90
2021/10/26 10:06:05;;;;;;;27.52;18.17;;;13.90;99.90;;;;;;6222707;23;20019;-90
2021/10/26 10:08:48;;;;;;;25.02;16.88;;;13.80;99.90;;;;;;6198072;23;20083;-89
2021/10/26 10:11:22;;;;;;;20.30;15.40;;;13.70;99.90;;;;;;6223001;23;20075;-88
2021/10/26 10:14:10;;;;;;;22.95;15.30;;;13.70;99.90;;;;;;6247197;23;20004;-89
2021/10/26 10:16:39;;;;;;;20.63;16.15;;;13.80;99.90;;;;;;6223270;23;20007;-89
2021/10/26 10:19:05;;;;;;;25.42;15.45;;;13.90;99.90;;;;;;6222965;23;20122;-88
2021/10/26 10:21:34;;;;;;;21.20;14.93;;;13.90;99.90;;;;;;6198001;23;20056;-88
2021/10/26 10:24:02;;;;;;;22.98;14.10;;;13.90;99.90;;;;;;6229978;23;20014;-88
2021/10/26 10:26:30;;;;;;;19.25;12.43;;;13.90;99.90;;;;;;6227964;23;20019;-88
2021/10/26 10:29:02;;;;;;;21.73;15.00;;;14.00;99.90;;;;;;6222035;23;20007;-89
2021/10/26 10:31:38;;;;;;;21.40;14.35;;;14.00;99.90;;;;;;6222393;23;20000;-88
2021/10/26 10:34:07;;;;;;;20.75;13.50;;;14.00;99.90;;;;;;6221630;23;19996;-88
2021/10/26 10:36:40;;;;;;;18.00;12.30;;;13.90;99.90;;;;;;6248709;23;20462;-88
2021/10/26 10:39:11;;;;;;;18.20;12.02;;;13.90;99.90;;;;;;6222152;23;19996;-86
2021/10/26 10:41:41;;;;;;;16.77;12.77;;;13.90;99.90;;;;;;6197441;23;20012;-88
2021/10/26 10:44:33;;;;;;;18.55;12.77;;;14.00;99.90;;;;;;6222184;23;20023;-86
2021/10/26 10:47:01;;;;;;;19.65;13.35;;;14.00;99.90;;;;;;6221674;23;20054;-89
2021/10/26 10:49:36;;;;;;;19.38;12.27;;;13.90;99.90;;;;;;6221758;23;20016;-88
2021/10/26 10:52:10;;;;;;;16.50;11.68;;;13.90;99.90;;;;;;6221774;23;20004;-88
2021/10/26 10:54:54;;;;;;;18.40;11.75;;;13.90;99.90;;;;;;6221589;23;20023;-88
2021/10/26 10:57:37;;;;;;;17.20;10.98;;;14.00;99.90;;;;;;6222380;23;20397;-87
2021/10/26 11:00:28;;;;;;;19.50;13.15;;;14.00;99.90;;;;;;6197149;23;20073;-88
2021/10/26 11:03:01;;;;;;;23.70;15.63;;;13.90;99.90;;;;;;6222099;23;20000;-88
2021/10/26 11:05:40;;;;;;;20.67;14.70;;;13.90;99.90;;;;;;6222407;23;19996;-88
2021/10/26 11:08:18;;;;;;;22.10;15.02;;;13.80;99.90;;;;;;6248687;23;19992;-88
2021/10/26 11:11:02;;;;;;;22.48;14.77;;;13.80;99.90;;;;;;6222315;23;20004;-89
2021/10/26 11:13:37;;;;;;;25.58;15.30;;;13.90;99.90;;;;;;6221438;23;20016;-88
2021/10/26 11:16:07;;;;;;;17.30;12.13;;;13.80;99.90;;;;;;6222488;23;20435;-89
2021/10/26 11:18:33;;;;;;;20.17;14.13;;;13.80;99.90;;;;;;6248560;23;19992;-88
2021/10/26 11:21:22;;;;;;;28.00;15.35;;;13.70;99.90;;;;;;6221795;23;20018;-88
2021/10/26 11:23:49;;;;;;;24.42;13.90;;;13.70;99.90;;;;;;6219704;23;19996;-89
2021/10/26 11:26:32;;;;;;;23.63;14.95;;;13.60;99.90;;;;;;6196828;23;20290;-89
2021/10/26 11:28:59;;;;;;;21.37;13.23;;;13.70;99.90;;;;;;6221271;23;20003;-88
2021/10/26 11:31:29;;;;;;;24.05;14.63;;;13.80;99.90;;;;;;6221712;23;19996;-89
2021/10/26 11:34:16;;;;;;;20.52;13.63;;;14.00;99.90;;;;;;6221843;23;20478;-89
2021/10/26 11:36:44;;;;;;;25.80;15.73;;;14.20;99.90;;;;;;6221923;23;20074;-89
2021/10/26 11:39:14;;;;;;;25.23;15.52;;;14.30;99.90;;;;;;6195114;23;20372;-88
2021/10/26 11:41:54;;;;;;;22.13;14.50;;;14.30;99.90;;;;;;6221944;23;20039;-89
2021/10/26 11:44:23;;;;;;;21.85;13.38;;;14.40;99.90;;;;;;6197110;23;20054;-88
2021/10/26 11:46:51;;;;;;;23.42;14.25;;;14.50;99.90;;;;;;6221595;23;20012;-88
2021/10/26 11:49:34;;;;;;;21.90;14.63;;;14.70;99.90;;;;;;6196027;23;20019;-88
2021/10/26 11:52:07;;;;;;;22.75;13.77;;;14.90;99.90;;;;;;6247819;23;20304;-89
2021/10/26 11:54:59;;;;;;;19.75;14.13;;;15.00;99.90;;;;;;6220889;23;20003;-88
2021/10/26 11:57:40;;;;;;;20.58;13.88;;;15.40;99.90;;;;;;6221954;23;20079;-88
2021/10/26 12:00:06;;;;;;;24.02;14.88;;;15.50;99.90;;;;;;6222309;23;20012;-88
2021/10/26 12:02:37;;;;;;;21.55;12.80;;;15.60;99.90;;;;;;6223687;23;20003;-89
2021/10/26 12:05:04;;;;;;;19.38;11.90;;;15.70;99.90;;;;;;6222036;23;20000;-88
2021/10/26 12:07:30;;;;;;;17.42;11.40;;;15.80;99.90;;;;;;6220987;23;20004;-88
2021/10/26 12:10:07;;;;;;;16.00;11.45;;;15.80;99.90;;;;;;6221916;23;20064;-88
2021/10/26 12:12:34;;;;;;;17.60;10.88;;;15.80;99.90;;;;;;6221379;23;20000;-88
2021/10/26 12:15:19;;;;;;;17.90;10.32;;;15.80;99.90;;;;;;6225777;23;20332;-88
2021/10/26 12:17:48;;;;;;;18.95;9.80;;;15.70;99.90;;;;;;6247745;23;20106;-88
2021/10/26 12:20:23;;;;;;;12.70;9.13;;;15.60;99.90;;;;;;6219853;23;20004;-89
2021/10/26 12:22:56;;;;;;;14.93;10.27;;;15.50;99.90;;;;;;6221675;23;20000;-89
2021/10/26 12:25:30;;;;;;;18.30;10.27;;;15.40;99.90;;;;;;6220342;23;20076;-89
2021/10/26 12:27:59;;;;;;;14.95;9.02;;;15.70;99.90;;;;;;6247796;23;20000;-89
2021/10/26 12:30:40;;;;;;;15.32;9.55;;;16.00;99.90;;;;;;6220682;23;20000;-89
2021/10/26 12:33:32;;;;;;;15.02;9.38;;;16.00;99.90;;;;;;6221312;23;20000;-89
2021/10/26 12:36:05;;;;;;;15.48;8.63;;;16.00;99.90;;;;;;6221025;23;19996;-88
2021/10/26 12:38:46;;;;;;;12.13;7.30;;;15.90;99.90;;;;;;6215593;23;19996;-89
2021/10/26 12:41:15;;;;;;;10.88;7.57;;;15.90;99.90;;;;;;6240891;23;20254;-89
2021/10/26 12:43:45;;;;;;;13.95;7.32;;;15.90;99.90;;;;;;6215031;23;19997;-88
2021/10/26 12:46:22;;;;;;;11.00;7.10;;;15.80;99.90;;;;;;6215197;23;20324;-90
2021/10/26 12:48:50;;;;;;;14.43;8.07;;;15.80;99.90;;;;;;6214603;23;20105;-89